Arnegard, North Dakota
Current Conditions -  °F | °C
As of 1:52 PM on Friday 28 Nov 2014 (Local Time) from KISN Reporting Station
Broken Clouds Broken Clouds  
Wind Chill: 14°   Ceiling: 11000
Heat Index: 23°   Visibility: 8mi
Dew Point: 17°   Wind: 8mph
Humidity: 78%   Direction: 150°SSE
Pressure: 29.52"   Gusts: NA
Location:  47.81°N, 103.44°W
Report Text: KISN 281952Z AUTO 15007KT 8SM FEW090 BKN110 M05/M08 A2952 RMK AO2 UPB29E38 SLP028 P0000 T10501083 $
Loading
Personal Weather Stations






























Interactive Weather Map New forecast layout! Learn more

10-Day Weather Forecast

Advertisements
Track Severe Weather on mobile